sensor_id;sensor_type;location;lat;lon;timestamp;P1;durP1;ratioP1;P2;durP2;ratioP2
49578;SDS011;35483;50.828;3.228;2022-12-07T00:01:06;10.55;;;8.30;;
49578;SDS011;35483;50.828;3.228;2022-12-07T00:03:33;13.02;;;8.35;;
49578;SDS011;35483;50.828;3.228;2022-12-07T00:06:00;10.23;;;7.90;;
49578;SDS011;35483;50.828;3.228;2022-12-07T00:08:27;10.13;;;7.70;;
49578;SDS011;35483;50.828;3.228;2022-12-07T00:10:53;11.88;;;8.57;;
49578;SDS011;35483;50.828;3.228;2022-12-07T00:13:18;10.85;;;7.90;;
49578;SDS011;35483;50.828;3.228;2022-12-07T00:15:44;9.43;;;8.18;;
49578;SDS011;35483;50.828;3.228;2022-12-07T00:18:10;9.63;;;7.63;;
49578;SDS011;35483;50.828;3.228;2022-12-07T00:20:35;8.05;;;7.25;;
49578;SDS011;35483;50.828;3.228;2022-12-07T00:23:01;11.23;;;7.80;;
49578;SDS011;35483;50.828;3.228;2022-12-07T00:25:27;8.63;;;7.22;;
49578;SDS011;35483;50.828;3.228;2022-12-07T00:27:53;10.52;;;7.10;;
49578;SDS011;35483;50.828;3.228;2022-12-07T00:30:22;9.70;;;8.13;;
49578;SDS011;35483;50.828;3.228;2022-12-07T00:32:48;10.57;;;7.32;;
49578;SDS011;35483;50.828;3.228;2022-12-07T00:35:14;10.95;;;7.90;;
49578;SDS011;35483;50.828;3.228;2022-12-07T00:37:40;9.25;;;8.10;;
49578;SDS011;35483;50.828;3.228;2022-12-07T00:40:06;9.70;;;7.43;;
49578;SDS011;35483;50.828;3.228;2022-12-07T00:42:32;8.63;;;7.72;;
49578;SDS011;35483;50.828;3.228;2022-12-07T00:44:58;11.88;;;8.43;;
49578;SDS011;35483;50.828;3.228;2022-12-07T00:47:24;9.88;;;7.57;;
49578;SDS011;35483;50.828;3.228;2022-12-07T00:49:49;18.90;;;7.35;;
49578;SDS011;35483;50.828;3.228;2022-12-07T00:52:15;10.57;;;7.32;;
49578;SDS011;35483;50.828;3.228;2022-12-07T00:54:41;8.85;;;6.75;;
49578;SDS011;35483;50.828;3.228;2022-12-07T00:57:06;13.60;;;8.50;;
49578;SDS011;35483;50.828;3.228;2022-12-07T00:59:32;10.70;;;7.95;;
49578;SDS011;35483;50.828;3.228;2022-12-07T01:01:58;12.45;;;8.23;;
49578;SDS011;35483;50.828;3.228;2022-12-07T01:04:23;10.85;;;8.05;;
49578;SDS011;35483;50.828;3.228;2022-12-07T01:06:49;10.10;;;7.90;;
49578;SDS011;35483;50.828;3.228;2022-12-07T01:09:15;11.98;;;7.45;;
49578;SDS011;35483;50.828;3.228;2022-12-07T01:11:41;9.50;;;7.75;;
49578;SDS011;35483;50.828;3.228;2022-12-07T01:14:08;12.50;;;7.47;;
49578;SDS011;35483;50.828;3.228;2022-12-07T01:16:34;8.43;;;7.13;;
49578;SDS011;35483;50.828;3.228;2022-12-07T01:19:00;9.13;;;6.90;;
49578;SDS011;35483;50.828;3.228;2022-12-07T01:21:30;8.57;;;7.32;;
49578;SDS011;35483;50.828;3.228;2022-12-07T01:24:04;10.38;;;7.22;;
49578;SDS011;35483;50.828;3.228;2022-12-07T01:26:31;10.90;;;7.40;;
49578;SDS011;35483;50.828;3.228;2022-12-07T01:28:58;10.45;;;7.05;;
49578;SDS011;35483;50.828;3.228;2022-12-07T01:31:26;7.63;;;6.60;;
49578;SDS011;35483;50.828;3.228;2022-12-07T01:33:54;10.05;;;7.40;;
49578;SDS011;35483;50.828;3.228;2022-12-07T01:36:22;8.50;;;7.15;;
49578;SDS011;35483;50.828;3.228;2022-12-07T01:38:56;7.90;;;7.10;;
49578;SDS011;35483;50.828;3.228;2022-12-07T01:41:25;8.75;;;6.80;;
49578;SDS011;35483;50.828;3.228;2022-12-07T01:52:15;9.07;;;6.28;;
49578;SDS011;35483;50.828;3.228;2022-12-07T01:54:45;11.93;;;6.00;;
49578;SDS011;35483;50.828;3.228;2022-12-07T01:57:11;10.30;;;6.63;;
49578;SDS011;35483;50.828;3.228;2022-12-07T01:59:40;8.32;;;6.20;;
49578;SDS011;35483;50.828;3.228;2022-12-07T02:02:08;11.23;;;6.45;;
49578;SDS011;35483;50.828;3.228;2022-12-07T02:04:42;10.07;;;5.90;;
49578;SDS011;35483;50.828;3.228;2022-12-07T02:07:09;6.70;;;5.88;;
49578;SDS011;35483;50.828;3.228;2022-12-07T02:09:35;10.73;;;6.13;;
49578;SDS011;35483;50.828;3.228;2022-12-07T02:12:01;9.45;;;6.28;;
49578;SDS011;35483;50.828;3.228;2022-12-07T02:14:27;8.98;;;5.25;;
49578;SDS011;35483;50.828;3.228;2022-12-07T02:19:51;9.30;;;5.72;;
49578;SDS011;35483;50.828;3.228;2022-12-07T02:31:05;10.18;;;6.07;;
49578;SDS011;35483;50.828;3.228;2022-12-07T02:33:40;8.73;;;5.22;;
49578;SDS011;35483;50.828;3.228;2022-12-07T02:36:17;7.75;;;4.95;;
49578;SDS011;35483;50.828;3.228;2022-12-07T02:38:52;10.77;;;6.05;;
49578;SDS011;35483;50.828;3.228;2022-12-07T02:41:29;8.98;;;5.63;;
49578;SDS011;35483;50.828;3.228;2022-12-07T02:44:07;11.65;;;6.00;;
49578;SDS011;35483;50.828;3.228;2022-12-07T02:46:54;8.55;;;5.07;;
49578;SDS011;35483;50.828;3.228;2022-12-07T02:49:23;7.95;;;5.63;;
49578;SDS011;35483;50.828;3.228;2022-12-07T02:51:51;8.77;;;5.60;;
49578;SDS011;35483;50.828;3.228;2022-12-07T02:54:18;7.55;;;5.40;;
49578;SDS011;35483;50.828;3.228;2022-12-07T03:13:26;6.90;;;4.70;;
49578;SDS011;35483;50.828;3.228;2022-12-07T03:16:05;9.30;;;5.63;;
49578;SDS011;35483;50.828;3.228;2022-12-07T03:18:55;8.07;;;4.68;;
49578;SDS011;35483;50.828;3.228;2022-12-07T03:21:25;6.80;;;4.63;;
49578;SDS011;35483;50.828;3.228;2022-12-07T03:23:55;7.82;;;5.18;;
49578;SDS011;35483;50.828;3.228;2022-12-07T03:26:24;10.52;;;5.25;;
49578;SDS011;35483;50.828;3.228;2022-12-07T03:29:02;12.57;;;5.63;;
49578;SDS011;35483;50.828;3.228;2022-12-07T03:31:40;8.45;;;5.60;;
49578;SDS011;35483;50.828;3.228;2022-12-07T03:34:21;6.35;;;4.88;;
49578;SDS011;35483;50.828;3.228;2022-12-07T03:37:04;8.70;;;5.05;;
49578;SDS011;35483;50.828;3.228;2022-12-07T03:39:39;8.40;;;5.80;;
49578;SDS011;35483;50.828;3.228;2022-12-07T03:42:25;10.30;;;5.43;;
49578;SDS011;35483;50.828;3.228;2022-12-07T03:44:51;7.88;;;5.30;;
49578;SDS011;35483;50.828;3.228;2022-12-07T03:50:00;9.20;;;5.30;;
49578;SDS011;35483;50.828;3.228;2022-12-07T03:52:42;8.93;;;4.93;;
49578;SDS011;35483;50.828;3.228;2022-12-07T03:55:32;7.50;;;5.25;;
49578;SDS011;35483;50.828;3.228;2022-12-07T03:58:06;13.07;;;5.90;;
49578;SDS011;35483;50.828;3.228;2022-12-07T04:00:36;9.05;;;5.50;;
49578;SDS011;35483;50.828;3.228;2022-12-07T04:03:02;9.18;;;5.78;;
49578;SDS011;35483;50.828;3.228;2022-12-07T04:05:27;9.43;;;6.75;;
49578;SDS011;35483;50.828;3.228;2022-12-07T04:07:53;11.15;;;6.07;;
49578;SDS011;35483;50.828;3.228;2022-12-07T04:10:19;9.07;;;5.80;;
49578;SDS011;35483;50.828;3.228;2022-12-07T04:12:45;12.18;;;7.07;;
49578;SDS011;35483;50.828;3.228;2022-12-07T04:15:11;10.50;;;6.03;;
49578;SDS011;35483;50.828;3.228;2022-12-07T04:17:37;9.10;;;6.63;;
49578;SDS011;35483;50.828;3.228;2022-12-07T04:20:03;10.30;;;5.50;;
49578;SDS011;35483;50.828;3.228;2022-12-07T04:22:30;8.18;;;6.07;;
49578;SDS011;35483;50.828;3.228;2022-12-07T04:24:55;9.93;;;6.80;;
49578;SDS011;35483;50.828;3.228;2022-12-07T04:27:21;12.05;;;6.88;;
49578;SDS011;35483;50.828;3.228;2022-12-07T04:29:47;10.10;;;6.70;;
49578;SDS011;35483;50.828;3.228;2022-12-07T04:32:12;9.88;;;7.05;;
49578;SDS011;35483;50.828;3.228;2022-12-07T04:34:39;9.05;;;6.18;;
49578;SDS011;35483;50.828;3.228;2022-12-07T04:37:05;13.10;;;7.30;;
49578;SDS011;35483;50.828;3.228;2022-12-07T04:39:31;13.73;;;7.28;;
49578;SDS011;35483;50.828;3.228;2022-12-07T04:41:58;12.30;;;8.13;;
49578;SDS011;35483;50.828;3.228;2022-12-07T04:44:24;12.57;;;8.43;;
49578;SDS011;35483;50.828;3.228;2022-12-07T04:46:51;11.52;;;7.80;;
49578;SDS011;35483;50.828;3.228;2022-12-07T04:49:17;12.30;;;8.65;;
49578;SDS011;35483;50.828;3.228;2022-12-07T04:51:44;13.43;;;8.75;;
49578;SDS011;35483;50.828;3.228;2022-12-07T04:54:11;11.57;;;7.60;;
49578;SDS011;35483;50.828;3.228;2022-12-07T04:56:38;12.10;;;7.72;;
49578;SDS011;35483;50.828;3.228;2022-12-07T04:59:04;11.27;;;7.70;;
49578;SDS011;35483;50.828;3.228;2022-12-07T05:01:30;13.88;;;8.50;;
49578;SDS011;35483;50.828;3.228;2022-12-07T05:03:56;12.85;;;7.57;;
49578;SDS011;35483;50.828;3.228;2022-12-07T05:06:22;11.93;;;8.50;;
49578;SDS011;35483;50.828;3.228;2022-12-07T05:08:48;12.90;;;8.27;;
49578;SDS011;35483;50.828;3.228;2022-12-07T05:11:14;12.85;;;8.10;;
49578;SDS011;35483;50.828;3.228;2022-12-07T05:14:00;13.82;;;7.72;;
49578;SDS011;35483;50.828;3.228;2022-12-07T05:16:27;12.65;;;8.02;;
49578;SDS011;35483;50.828;3.228;2022-12-07T05:18:53;11.77;;;7.32;;
49578;SDS011;35483;50.828;3.228;2022-12-07T05:21:19;19.02;;;8.38;;
49578;SDS011;35483;50.828;3.228;2022-12-07T05:23:45;12.05;;;7.30;;
49578;SDS011;35483;50.828;3.228;2022-12-07T05:26:10;13.30;;;7.10;;
49578;SDS011;35483;50.828;3.228;2022-12-07T05:28:36;13.60;;;7.60;;
49578;SDS011;35483;50.828;3.228;2022-12-07T05:31:02;14.73;;;7.88;;
49578;SDS011;35483;50.828;3.228;2022-12-07T05:33:28;23.27;;;18.20;;
49578;SDS011;35483;50.828;3.228;2022-12-07T05:35:54;17.77;;;11.50;;
49578;SDS011;35483;50.828;3.228;2022-12-07T05:38:19;12.68;;;8.60;;
49578;SDS011;35483;50.828;3.228;2022-12-07T05:40:45;17.70;;;9.32;;
49578;SDS011;35483;50.828;3.228;2022-12-07T05:43:11;12.45;;;8.75;;
49578;SDS011;35483;50.828;3.228;2022-12-07T05:45:36;13.20;;;8.60;;
49578;SDS011;35483;50.828;3.228;2022-12-07T05:48:02;14.98;;;9.25;;
49578;SDS011;35483;50.828;3.228;2022-12-07T05:50:28;13.57;;;9.25;;
49578;SDS011;35483;50.828;3.228;2022-12-07T05:52:53;14.00;;;9.40;;
49578;SDS011;35483;50.828;3.228;2022-12-07T05:55:19;16.30;;;9.38;;
49578;SDS011;35483;50.828;3.228;2022-12-07T05:57:45;16.90;;;10.07;;
49578;SDS011;35483;50.828;3.228;2022-12-07T06:00:31;14.25;;;9.32;;
49578;SDS011;35483;50.828;3.228;2022-12-07T06:02:57;15.55;;;9.50;;
49578;SDS011;35483;50.828;3.228;2022-12-07T06:05:22;15.63;;;9.13;;
49578;SDS011;35483;50.828;3.228;2022-12-07T06:07:48;12.60;;;8.65;;
49578;SDS011;35483;50.828;3.228;2022-12-07T06:10:14;17.52;;;9.18;;
49578;SDS011;35483;50.828;3.228;2022-12-07T06:12:40;14.05;;;9.77;;
49578;SDS011;35483;50.828;3.228;2022-12-07T06:15:08;12.93;;;9.02;;
49578;SDS011;35483;50.828;3.228;2022-12-07T06:17:35;11.18;;;7.45;;
49578;SDS011;35483;50.828;3.228;2022-12-07T06:20:02;9.77;;;7.65;;
49578;SDS011;35483;50.828;3.228;2022-12-07T06:22:28;11.32;;;8.15;;
49578;SDS011;35483;50.828;3.228;2022-12-07T06:24:54;12.00;;;9.85;;
49578;SDS011;35483;50.828;3.228;2022-12-07T06:27:19;13.20;;;8.40;;
49578;SDS011;35483;50.828;3.228;2022-12-07T06:29:45;18.38;;;11.27;;
49578;SDS011;35483;50.828;3.228;2022-12-07T06:32:11;11.25;;;8.70;;
49578;SDS011;35483;50.828;3.228;2022-12-07T06:34:37;12.73;;;9.18;;
49578;SDS011;35483;50.828;3.228;2022-12-07T06:37:03;12.23;;;9.60;;
49578;SDS011;35483;50.828;3.228;2022-12-07T06:39:29;17.50;;;10.73;;
49578;SDS011;35483;50.828;3.228;2022-12-07T06:41:55;13.48;;;8.57;;
49578;SDS011;35483;50.828;3.228;2022-12-07T06:44:22;13.95;;;8.77;;
49578;SDS011;35483;50.828;3.228;2022-12-07T06:46:48;9.43;;;7.45;;
49578;SDS011;35483;50.828;3.228;2022-12-07T06:49:15;13.30;;;9.30;;
49578;SDS011;35483;50.828;3.228;2022-12-07T06:51:41;13.30;;;8.95;;
49578;SDS011;35483;50.828;3.228;2022-12-07T06:54:11;12.73;;;8.02;;
49578;SDS011;35483;50.828;3.228;2022-12-07T06:56:38;13.25;;;8.75;;
49578;SDS011;35483;50.828;3.228;2022-12-07T06:59:04;12.60;;;8.35;;
49578;SDS011;35483;50.828;3.228;2022-12-07T07:01:31;14.18;;;8.55;;
49578;SDS011;35483;50.828;3.228;2022-12-07T07:03:58;12.27;;;7.93;;
49578;SDS011;35483;50.828;3.228;2022-12-07T07:06:23;19.60;;;9.00;;
49578;SDS011;35483;50.828;3.228;2022-12-07T07:08:49;10.50;;;7.50;;
49578;SDS011;35483;50.828;3.228;2022-12-07T07:11:15;14.60;;;7.45;;
49578;SDS011;35483;50.828;3.228;2022-12-07T07:13:41;8.63;;;7.40;;
49578;SDS011;35483;50.828;3.228;2022-12-07T07:16:07;12.95;;;7.18;;
49578;SDS011;35483;50.828;3.228;2022-12-07T07:18:33;13.00;;;7.90;;
49578;SDS011;35483;50.828;3.228;2022-12-07T07:20:59;17.33;;;9.63;;
49578;SDS011;35483;50.828;3.228;2022-12-07T07:23:25;13.32;;;9.05;;
49578;SDS011;35483;50.828;3.228;2022-12-07T07:25:51;12.15;;;9.65;;
49578;SDS011;35483;50.828;3.228;2022-12-07T07:28:17;15.52;;;9.85;;
49578;SDS011;35483;50.828;3.228;2022-12-07T07:30:43;12.88;;;11.27;;
49578;SDS011;35483;50.828;3.228;2022-12-07T07:33:09;11.05;;;9.55;;
49578;SDS011;35483;50.828;3.228;2022-12-07T07:35:35;10.70;;;8.45;;
49578;SDS011;35483;50.828;3.228;2022-12-07T07:38:02;9.43;;;7.65;;
49578;SDS011;35483;50.828;3.228;2022-12-07T07:40:28;12.98;;;9.23;;
49578;SDS011;35483;50.828;3.228;2022-12-07T07:42:55;33.88;;;20.02;;
49578;SDS011;35483;50.828;3.228;2022-12-07T07:45:21;34.88;;;23.90;;
49578;SDS011;35483;50.828;3.228;2022-12-07T07:47:48;28.83;;;19.02;;
49578;SDS011;35483;50.828;3.228;2022-12-07T07:50:14;21.13;;;14.65;;
49578;SDS011;35483;50.828;3.228;2022-12-07T07:52:41;16.38;;;9.90;;
49578;SDS011;35483;50.828;3.228;2022-12-07T07:55:06;16.10;;;9.73;;
49578;SDS011;35483;50.828;3.228;2022-12-07T07:57:33;20.35;;;9.88;;
49578;SDS011;35483;50.828;3.228;2022-12-07T08:00:00;18.35;;;11.48;;
49578;SDS011;35483;50.828;3.228;2022-12-07T08:02:26;14.88;;;9.20;;
49578;SDS011;35483;50.828;3.228;2022-12-07T08:04:54;17.02;;;11.27;;
49578;SDS011;35483;50.828;3.228;2022-12-07T08:07:20;15.93;;;11.02;;
49578;SDS011;35483;50.828;3.228;2022-12-07T08:09:46;13.90;;;10.38;;
49578;SDS011;35483;50.828;3.228;2022-12-07T08:12:12;14.20;;;9.30;;
49578;SDS011;35483;50.828;3.228;2022-12-07T08:14:37;13.13;;;8.77;;
49578;SDS011;35483;50.828;3.228;2022-12-07T08:17:03;13.35;;;10.75;;
49578;SDS011;35483;50.828;3.228;2022-12-07T08:19:29;15.77;;;10.10;;
49578;SDS011;35483;50.828;3.228;2022-12-07T08:21:55;8.27;;;6.55;;
49578;SDS011;35483;50.828;3.228;2022-12-07T08:24:21;10.98;;;6.75;;
49578;SDS011;35483;50.828;3.228;2022-12-07T08:26:47;9.88;;;5.80;;
49578;SDS011;35483;50.828;3.228;2022-12-07T08:29:14;10.00;;;4.15;;
49578;SDS011;35483;50.828;3.228;2022-12-07T08:31:40;6.05;;;4.20;;
49578;SDS011;35483;50.828;3.228;2022-12-07T08:34:06;9.80;;;4.43;;
49578;SDS011;35483;50.828;3.228;2022-12-07T08:36:31;7.78;;;4.72;;
49578;SDS011;35483;50.828;3.228;2022-12-07T08:38:57;8.68;;;5.18;;
49578;SDS011;35483;50.828;3.228;2022-12-07T08:41:22;7.88;;;4.97;;
49578;SDS011;35483;50.828;3.228;2022-12-07T08:43:51;8.93;;;5.53;;
49578;SDS011;35483;50.828;3.228;2022-12-07T08:48:54;9.57;;;5.22;;
49578;SDS011;35483;50.828;3.228;2022-12-07T08:51:23;11.93;;;5.65;;
49578;SDS011;35483;50.828;3.228;2022-12-07T08:53:51;9.15;;;5.05;;
49578;SDS011;35483;50.828;3.228;2022-12-07T08:56:17;6.45;;;4.40;;
49578;SDS011;35483;50.828;3.228;2022-12-07T08:58:44;7.50;;;4.45;;
49578;SDS011;35483;50.828;3.228;2022-12-07T09:01:10;8.70;;;4.60;;
49578;SDS011;35483;50.828;3.228;2022-12-07T09:03:35;9.55;;;4.93;;
49578;SDS011;35483;50.828;3.228;2022-12-07T09:06:01;8.23;;;4.90;;
49578;SDS011;35483;50.828;3.228;2022-12-07T09:08:31;7.78;;;4.50;;
49578;SDS011;35483;50.828;3.228;2022-12-07T09:10:59;8.38;;;4.68;;
49578;SDS011;35483;50.828;3.228;2022-12-07T09:13:25;11.25;;;5.25;;
49578;SDS011;35483;50.828;3.228;2022-12-07T09:15:50;8.65;;;5.15;;
49578;SDS011;35483;50.828;3.228;2022-12-07T09:18:16;9.63;;;5.47;;
49578;SDS011;35483;50.828;3.228;2022-12-07T09:20:42;10.80;;;5.00;;
49578;SDS011;35483;50.828;3.228;2022-12-07T09:23:07;8.35;;;4.80;;
49578;SDS011;35483;50.828;3.228;2022-12-07T09:25:34;8.40;;;4.75;;
49578;SDS011;35483;50.828;3.228;2022-12-07T09:27:59;9.68;;;4.68;;
49578;SDS011;35483;50.828;3.228;2022-12-07T09:30:26;9.05;;;4.70;;
49578;SDS011;35483;50.828;3.228;2022-12-07T09:32:53;10.90;;;5.10;;
49578;SDS011;35483;50.828;3.228;2022-12-07T09:35:19;8.25;;;4.63;;
49578;SDS011;35483;50.828;3.228;2022-12-07T09:37:45;10.13;;;4.53;;
49578;SDS011;35483;50.828;3.228;2022-12-07T09:40:11;8.82;;;4.45;;
49578;SDS011;35483;50.828;3.228;2022-12-07T09:42:39;8.10;;;4.70;;
49578;SDS011;35483;50.828;3.228;2022-12-07T09:45:11;9.20;;;4.70;;
49578;SDS011;35483;50.828;3.228;2022-12-07T09:47:47;8.10;;;4.80;;
49578;SDS011;35483;50.828;3.228;2022-12-07T09:50:14;10.50;;;4.50;;
49578;SDS011;35483;50.828;3.228;2022-12-07T09:52:43;7.68;;;5.43;;
49578;SDS011;35483;50.828;3.228;2022-12-07T09:55:21;12.60;;;6.80;;
49578;SDS011;35483;50.828;3.228;2022-12-07T09:57:49;10.95;;;4.97;;
49578;SDS011;35483;50.828;3.228;2022-12-07T10:00:17;9.38;;;4.75;;
49578;SDS011;35483;50.828;3.228;2022-12-07T10:02:51;7.20;;;4.68;;
49578;SDS011;35483;50.828;3.228;2022-12-07T10:05:27;7.60;;;4.22;;
49578;SDS011;35483;50.828;3.228;2022-12-07T10:07:57;8.07;;;4.80;;
49578;SDS011;35483;50.828;3.228;2022-12-07T10:10:24;7.90;;;5.00;;
49578;SDS011;35483;50.828;3.228;2022-12-07T10:13:04;8.32;;;4.60;;
49578;SDS011;35483;50.828;3.228;2022-12-07T10:18:30;8.15;;;3.83;;
49578;SDS011;35483;50.828;3.228;2022-12-07T10:21:04;4.70;;;3.88;;
49578;SDS011;35483;50.828;3.228;2022-12-07T10:23:35;8.45;;;4.00;;
49578;SDS011;35483;50.828;3.228;2022-12-07T10:26:25;6.63;;;3.63;;
49578;SDS011;35483;50.828;3.228;2022-12-07T10:28:53;7.85;;;4.10;;
49578;SDS011;35483;50.828;3.228;2022-12-07T10:31:21;8.55;;;4.20;;
49578;SDS011;35483;50.828;3.228;2022-12-07T10:33:49;3.72;;;3.33;;
49578;SDS011;35483;50.828;3.228;2022-12-07T10:39:01;4.72;;;3.78;;
49578;SDS011;35483;50.828;3.228;2022-12-07T10:41:59;9.15;;;3.92;;
49578;SDS011;35483;50.828;3.228;2022-12-07T10:44:29;6.35;;;3.30;;
49578;SDS011;35483;50.828;3.228;2022-12-07T10:46:59;6.10;;;3.15;;
49578;SDS011;35483;50.828;3.228;2022-12-07T10:58:15;5.15;;;1.95;;
49578;SDS011;35483;50.828;3.228;2022-12-07T11:11:59;7.72;;;3.08;;
49578;SDS011;35483;50.828;3.228;2022-12-07T11:26:27;6.20;;;2.20;;
49578;SDS011;35483;50.828;3.228;2022-12-07T11:34:24;3.88;;;2.08;;
49578;SDS011;35483;50.828;3.228;2022-12-07T11:37:13;6.30;;;2.05;;
49578;SDS011;35483;50.828;3.228;2022-12-07T11:39:55;5.55;;;2.50;;
49578;SDS011;35483;50.828;3.228;2022-12-07T11:42:36;2.78;;;1.70;;
49578;SDS011;35483;50.828;3.228;2022-12-07T11:48:11;3.58;;;2.00;;
49578;SDS011;35483;50.828;3.228;2022-12-07T11:50:46;4.80;;;2.15;;
49578;SDS011;35483;50.828;3.228;2022-12-07T12:07:05;8.98;;;3.70;;
49578;SDS011;35483;50.828;3.228;2022-12-07T12:09:39;3.08;;;1.20;;
49578;SDS011;35483;50.828;3.228;2022-12-07T12:21:02;1.67;;;1.58;;
49578;SDS011;35483;50.828;3.228;2022-12-07T12:26:03;1.73;;;1.00;;
49578;SDS011;35483;50.828;3.228;2022-12-07T12:33:53;3.90;;;1.20;;
49578;SDS011;35483;50.828;3.228;2022-12-07T12:44:37;1.67;;;1.10;;
49578;SDS011;35483;50.828;3.228;2022-12-07T12:46:58;4.95;;;1.60;;
49578;SDS011;35483;50.828;3.228;2022-12-07T12:49:37;1.52;;;1.20;;
49578;SDS011;35483;50.828;3.228;2022-12-07T12:54:57;1.38;;;1.27;;
49578;SDS011;35483;50.828;3.228;2022-12-07T12:57:37;3.58;;;1.83;;
49578;SDS011;35483;50.828;3.228;2022-12-07T13:02:48;3.80;;;2.17;;
49578;SDS011;35483;50.828;3.228;2022-12-07T13:05:18;11.93;;;9.98;;
49578;SDS011;35483;50.828;3.228;2022-12-07T13:12:58;3.95;;;2.38;;
49578;SDS011;35483;50.828;3.228;2022-12-07T13:15:37;4.57;;;2.83;;
49578;SDS011;35483;50.828;3.228;2022-12-07T13:34:30;5.47;;;3.83;;
49578;SDS011;35483;50.828;3.228;2022-12-07T13:37:02;6.05;;;2.60;;
49578;SDS011;35483;50.828;3.228;2022-12-07T13:39:35;7.78;;;4.45;;
49578;SDS011;35483;50.828;3.228;2022-12-07T13:42:19;7.68;;;4.00;;
49578;SDS011;35483;50.828;3.228;2022-12-07T13:44:51;3.80;;;2.90;;
49578;SDS011;35483;50.828;3.228;2022-12-07T13:52:54;5.97;;;2.10;;
49578;SDS011;35483;50.828;3.228;2022-12-07T13:55:22;3.58;;;2.35;;
49578;SDS011;35483;50.828;3.228;2022-12-07T13:57:49;4.68;;;2.55;;
49578;SDS011;35483;50.828;3.228;2022-12-07T14:00:18;4.47;;;2.63;;
49578;SDS011;35483;50.828;3.228;2022-12-07T14:05:26;6.45;;;3.17;;
49578;SDS011;35483;50.828;3.228;2022-12-07T14:07:54;3.38;;;2.40;;
49578;SDS011;35483;50.828;3.228;2022-12-07T14:10:25;4.80;;;2.47;;
49578;SDS011;35483;50.828;3.228;2022-12-07T14:12:58;6.30;;;3.83;;
49578;SDS011;35483;50.828;3.228;2022-12-07T14:15:28;10.68;;;3.40;;
49578;SDS011;35483;50.828;3.228;2022-12-07T14:17:56;6.32;;;3.20;;
49578;SDS011;35483;50.828;3.228;2022-12-07T14:20:31;5.57;;;3.15;;
49578;SDS011;35483;50.828;3.228;2022-12-07T14:23:05;5.95;;;2.20;;
49578;SDS011;35483;50.828;3.228;2022-12-07T14:25:49;3.78;;;1.70;;
49578;SDS011;35483;50.828;3.228;2022-12-07T14:28:27;4.18;;;1.80;;
49578;SDS011;35483;50.828;3.228;2022-12-07T14:30:56;6.32;;;2.42;;
49578;SDS011;35483;50.828;3.228;2022-12-07T14:33:23;2.95;;;1.70;;
49578;SDS011;35483;50.828;3.228;2022-12-07T14:35:49;6.65;;;2.50;;
49578;SDS011;35483;50.828;3.228;2022-12-07T14:38:19;3.05;;;1.65;;
49578;SDS011;35483;50.828;3.228;2022-12-07T14:40:45;5.57;;;1.80;;
49578;SDS011;35483;50.828;3.228;2022-12-07T14:43:12;2.75;;;2.08;;
49578;SDS011;35483;50.828;3.228;2022-12-07T14:45:40;6.55;;;2.25;;
49578;SDS011;35483;50.828;3.228;2022-12-07T14:48:07;3.75;;;1.65;;
49578;SDS011;35483;50.828;3.228;2022-12-07T14:50:37;3.20;;;2.03;;
49578;SDS011;35483;50.828;3.228;2022-12-07T14:53:12;6.85;;;2.17;;
49578;SDS011;35483;50.828;3.228;2022-12-07T14:55:39;2.47;;;1.60;;
49578;SDS011;35483;50.828;3.228;2022-12-07T14:58:05;5.30;;;2.83;;
49578;SDS011;35483;50.828;3.228;2022-12-07T15:00:37;7.60;;;2.92;;
49578;SDS011;35483;50.828;3.228;2022-12-07T15:03:02;5.90;;;2.40;;
49578;SDS011;35483;50.828;3.228;2022-12-07T15:05:28;3.33;;;2.70;;
49578;SDS011;35483;50.828;3.228;2022-12-07T15:07:53;4.18;;;3.33;;
49578;SDS011;35483;50.828;3.228;2022-12-07T15:10:23;5.60;;;3.08;;
49578;SDS011;35483;50.828;3.228;2022-12-07T15:12:58;3.95;;;2.78;;
49578;SDS011;35483;50.828;3.228;2022-12-07T15:15:45;4.20;;;3.00;;
49578;SDS011;35483;50.828;3.228;2022-12-07T15:18:12;5.45;;;3.72;;
49578;SDS011;35483;50.828;3.228;2022-12-07T15:20:38;4.20;;;3.00;;
49578;SDS011;35483;50.828;3.228;2022-12-07T15:23:04;10.05;;;6.10;;
49578;SDS011;35483;50.828;3.228;2022-12-07T15:25:30;8.38;;;6.53;;
49578;SDS011;35483;50.828;3.228;2022-12-07T15:27:55;8.18;;;4.60;;
49578;SDS011;35483;50.828;3.228;2022-12-07T15:30:21;6.00;;;4.15;;
49578;SDS011;35483;50.828;3.228;2022-12-07T15:32:50;3.75;;;2.45;;
49578;SDS011;35483;50.828;3.228;2022-12-07T15:35:17;5.03;;;2.20;;
49578;SDS011;35483;50.828;3.228;2022-12-07T15:37:43;3.50;;;1.88;;
49578;SDS011;35483;50.828;3.228;2022-12-07T15:40:09;2.10;;;1.25;;
49578;SDS011;35483;50.828;3.228;2022-12-07T15:42:35;2.35;;;1.48;;
49578;SDS011;35483;50.828;3.228;2022-12-07T15:45:02;4.07;;;1.98;;
49578;SDS011;35483;50.828;3.228;2022-12-07T15:47:29;2.88;;;1.60;;
49578;SDS011;35483;50.828;3.228;2022-12-07T15:50:03;3.42;;;1.90;;
49578;SDS011;35483;50.828;3.228;2022-12-07T15:52:30;4.65;;;2.95;;
49578;SDS011;35483;50.828;3.228;2022-12-07T15:54:57;5.30;;;2.95;;
49578;SDS011;35483;50.828;3.228;2022-12-07T15:57:24;7.15;;;4.82;;
49578;SDS011;35483;50.828;3.228;2022-12-07T15:59:51;8.20;;;4.18;;
49578;SDS011;35483;50.828;3.228;2022-12-07T16:02:17;9.88;;;6.32;;
49578;SDS011;35483;50.828;3.228;2022-12-07T16:04:43;5.25;;;3.70;;
49578;SDS011;35483;50.828;3.228;2022-12-07T16:07:09;7.70;;;6.03;;
49578;SDS011;35483;50.828;3.228;2022-12-07T16:09:36;10.85;;;6.55;;
49578;SDS011;35483;50.828;3.228;2022-12-07T16:12:02;12.63;;;5.72;;
49578;SDS011;35483;50.828;3.228;2022-12-07T16:14:28;11.48;;;7.10;;
49578;SDS011;35483;50.828;3.228;2022-12-07T16:16:54;8.80;;;5.65;;
49578;SDS011;35483;50.828;3.228;2022-12-07T16:19:20;9.23;;;6.55;;
49578;SDS011;35483;50.828;3.228;2022-12-07T16:21:46;9.38;;;5.45;;
49578;SDS011;35483;50.828;3.228;2022-12-07T16:24:11;9.35;;;4.28;;
49578;SDS011;35483;50.828;3.228;2022-12-07T16:26:40;8.10;;;4.68;;
49578;SDS011;35483;50.828;3.228;2022-12-07T16:29:05;7.18;;;4.97;;
49578;SDS011;35483;50.828;3.228;2022-12-07T16:31:31;12.25;;;9.02;;
49578;SDS011;35483;50.828;3.228;2022-12-07T16:33:57;9.13;;;5.18;;
49578;SDS011;35483;50.828;3.228;2022-12-07T16:36:23;10.15;;;5.30;;
49578;SDS011;35483;50.828;3.228;2022-12-07T16:38:51;9.48;;;8.45;;
49578;SDS011;35483;50.828;3.228;2022-12-07T16:41:17;9.10;;;6.43;;
49578;SDS011;35483;50.828;3.228;2022-12-07T16:43:43;8.93;;;5.18;;
49578;SDS011;35483;50.828;3.228;2022-12-07T16:46:09;8.82;;;4.72;;
49578;SDS011;35483;50.828;3.228;2022-12-07T16:48:36;7.40;;;5.20;;
49578;SDS011;35483;50.828;3.228;2022-12-07T16:51:03;8.20;;;5.85;;
49578;SDS011;35483;50.828;3.228;2022-12-07T16:53:30;8.18;;;6.85;;
49578;SDS011;35483;50.828;3.228;2022-12-07T16:55:56;11.57;;;7.30;;
49578;SDS011;35483;50.828;3.228;2022-12-07T16:58:22;10.20;;;6.70;;
49578;SDS011;35483;50.828;3.228;2022-12-07T17:00:48;9.90;;;7.25;;
49578;SDS011;35483;50.828;3.228;2022-12-07T17:03:13;11.32;;;6.78;;
49578;SDS011;35483;50.828;3.228;2022-12-07T17:05:44;9.43;;;6.68;;
49578;SDS011;35483;50.828;3.228;2022-12-07T17:08:11;12.73;;;6.50;;
49578;SDS011;35483;50.828;3.228;2022-12-07T17:10:38;9.55;;;6.55;;
49578;SDS011;35483;50.828;3.228;2022-12-07T17:13:06;11.60;;;5.60;;
49578;SDS011;35483;50.828;3.228;2022-12-07T17:15:57;8.68;;;5.10;;
49578;SDS011;35483;50.828;3.228;2022-12-07T17:18:29;8.07;;;5.25;;
49578;SDS011;35483;50.828;3.228;2022-12-07T17:21:01;11.43;;;6.38;;
49578;SDS011;35483;50.828;3.228;2022-12-07T17:23:28;11.38;;;7.35;;
49578;SDS011;35483;50.828;3.228;2022-12-07T17:25:55;17.70;;;9.13;;
49578;SDS011;35483;50.828;3.228;2022-12-07T17:28:21;9.85;;;6.72;;
49578;SDS011;35483;50.828;3.228;2022-12-07T17:30:46;8.73;;;6.32;;